Time;durP1;ratioP1;P1;durP2;ratioP2;P2;SDS_P1;SDS_P2;PMS_P1;PMS_P2;Temp;Humidity;BMP_temperature;BMP_pressure;BME280_temperature;BME280_humidity;BME280_pressure;Samples;Min_cycle;Max_cycle;Signal;HPM_P1;HPM_P2
2022/09/29 00:00:34;;;;;;;1999.90;999.90;;;5.70;99.90;;;;;;5021643;28;20116;-65
2022/09/29 00:03:00;;;;;;;1999.90;999.90;;;5.80;99.90;;;;;;5022831;28;20501;-65
2022/09/29 00:05:25;;;;;;;1999.90;999.90;;;5.80;99.90;;;;;;5027006;28;20041;-65
2022/09/29 00:07:51;;;;;;;1999.90;999.90;;;5.80;99.90;;;;;;5022159;28;20560;-65
2022/09/29 00:10:17;;;;;;;1999.90;999.90;;;5.80;99.90;;;;;;5021199;28;20057;-65
2022/09/29 00:12:42;;;;;;;1999.90;999.90;;;5.80;99.90;;;;;;5026055;28;20407;-65
2022/09/29 00:15:08;;;;;;;1999.90;999.90;;;5.80;99.90;;;;;;5021406;28;20037;-65
2022/09/29 00:17:34;;;;;;;1999.90;999.90;;;5.70;99.90;;;;;;5027334;28;20049;-65
2022/09/29 00:20:00;;;;;;;1999.90;999.90;;;5.70;99.90;;;;;;5029637;28;20057;-65
2022/09/29 00:22:25;;;;;;;1999.90;999.90;;;5.60;99.90;;;;;;5023391;28;20056;-65
2022/09/29 00:24:51;;;;;;;1999.90;999.90;;;5.50;99.90;;;;;;5034157;28;20457;-65
2022/09/29 00:27:17;;;;;;;1999.90;999.90;;;5.50;99.90;;;;;;5028970;28;20537;-65
2022/09/29 00:29:43;;;;;;;1999.90;999.90;;;5.50;99.90;;;;;;5021570;28;20044;-65
2022/09/29 00:32:09;;;;;;;1999.90;999.90;;;5.40;99.90;;;;;;5009063;28;20049;-65
2022/09/29 00:34:35;;;;;;;1999.90;999.90;;;5.40;99.90;;;;;;5027672;28;20049;-65
2022/09/29 00:37:01;;;;;;;1999.90;999.90;;;5.30;99.90;;;;;;5019685;28;20046;-65
2022/09/29 00:39:26;;;;;;;1999.90;999.90;;;5.30;99.90;;;;;;5025840;28;20076;-65
2022/09/29 00:41:52;;;;;;;1999.90;999.90;;;5.30;99.90;;;;;;5023545;28;20041;-65
2022/09/29 00:44:20;;;;;;;1999.90;999.90;;;5.30;99.90;;;;;;5027296;28;20394;-65
2022/09/29 00:46:51;;;;;;;1999.90;999.90;;;5.30;99.90;;;;;;5025903;28;20069;-65
2022/09/29 00:49:22;;;;;;;1999.90;999.90;;;5.20;99.90;;;;;;5025532;28;20061;-65
2022/09/29 00:51:58;;;;;;;1999.90;999.90;;;5.20;99.90;;;;;;5027920;28;20052;-65
2022/09/29 00:54:27;;;;;;;1999.90;999.90;;;5.20;99.90;;;;;;5027751;28;20049;-65
2022/09/29 00:56:55;;;;;;;1999.90;999.90;;;5.20;99.90;;;;;;5027840;28;20029;-65
2022/09/29 00:59:46;;;;;;;1999.90;999.90;;;5.10;99.90;;;;;;5025093;28;20067;-65
2022/09/29 01:02:18;;;;;;;1999.90;999.90;;;5.00;99.90;;;;;;5027135;28;20637;-65
2022/09/29 01:04:44;;;;;;;1999.90;999.90;;;5.00;99.90;;;;;;5025107;28;20422;-65
2022/09/29 01:07:11;;;;;;;1999.90;999.90;;;5.00;99.90;;;;;;5022821;28;20184;-65
2022/09/29 01:09:38;;;;;;;1999.90;999.90;;;5.00;99.90;;;;;;5037774;28;20064;-65
2022/09/29 01:12:05;;;;;;;1999.90;999.90;;;4.90;99.90;;;;;;5024533;28;20074;-65
2022/09/29 01:14:32;;;;;;;1999.90;999.90;;;4.90;99.90;;;;;;5014281;28;20140;-65
2022/09/29 01:16:58;;;;;;;1999.90;999.90;;;4.90;99.90;;;;;;5019332;28;20053;-65
2022/09/29 01:19:47;;;;;;;1999.90;999.90;;;5.00;99.90;;;;;;5039815;28;20892;-65
2022/09/29 01:22:28;;;;;;;1999.90;999.90;;;4.90;99.90;;;;;;5037576;28;20045;-65
2022/09/29 01:25:01;;;;;;;1999.90;999.90;;;4.90;99.90;;;;;;5038749;28;20499;-65
2022/09/29 01:27:38;;;;;;;1999.90;999.90;;;4.90;99.90;;;;;;5033743;28;20045;-65
2022/09/29 01:30:45;;;;;;;1999.90;999.90;;;4.90;99.90;;;;;;5021548;28;20033;-65
2022/09/29 01:33:40;;;;;;;1999.90;999.90;;;4.90;99.90;;;;;;5008823;28;20125;-65
2022/09/29 01:36:37;;;;;;;1999.90;999.90;;;5.10;99.90;;;;;;5037789;28;20045;-65
2022/09/29 01:39:18;;;;;;;1999.90;999.90;;;5.10;99.90;;;;;;5018386;28;20045;-65
2022/09/29 01:42:09;;;;;;;1999.90;999.90;;;5.10;99.90;;;;;;5009347;28;20855;-65
2022/09/29 01:44:45;;;;;;;1999.90;999.90;;;5.00;99.90;;;;;;5025387;28;20047;-65
2022/09/29 01:47:25;;;;;;;1999.90;999.90;;;4.90;99.90;;;;;;5020650;28;20207;-65
2022/09/29 01:50:05;;;;;;;1999.90;999.90;;;4.90;99.90;;;;;;5023361;28;20041;-65
2022/09/29 01:52:38;;;;;;;1999.90;999.90;;;4.90;99.90;;;;;;5042007;28;20076;-65
2022/09/29 01:55:11;;;;;;;1999.90;999.90;;;4.80;99.90;;;;;;5020000;28;20056;-65
2022/09/29 01:58:01;;;;;;;1999.90;999.90;;;4.80;99.90;;;;;;5025510;28;20029;-65
2022/09/29 02:00:30;;;;;;;1999.90;999.90;;;4.90;99.90;;;;;;5022947;28;20045;-65
2022/09/29 02:03:10;;;;;;;1999.90;999.90;;;4.90;99.90;;;;;;5026776;28;20049;-65
2022/09/29 02:05:38;;;;;;;1999.90;999.90;;;4.90;99.90;;;;;;5034204;28;20801;-65
2022/09/29 02:08:19;;;;;;;1999.90;999.90;;;4.90;99.90;;;;;;5032316;28;20052;-65
2022/09/29 02:11:07;;;;;;;1999.90;999.90;;;4.80;99.90;;;;;;5020188;28;20080;-65
2022/09/29 02:13:42;;;;;;;1999.90;999.90;;;4.80;99.90;;;;;;5028246;28;20115;-65
2022/09/29 02:16:13;;;;;;;1999.90;999.90;;;4.80;99.90;;;;;;5017517;28;20073;-65
2022/09/29 02:19:03;;;;;;;1999.90;999.90;;;4.80;99.90;;;;;;5024550;28;20394;-65
2022/09/29 02:21:28;;;;;;;1999.90;999.90;;;4.70;99.90;;;;;;5038133;28;20099;-65
2022/09/29 02:23:55;;;;;;;1999.90;999.90;;;4.70;99.90;;;;;;5028267;28;20494;-66
2022/09/29 02:26:24;;;;;;;1999.90;999.90;;;4.70;99.90;;;;;;5037602;28;20087;-65
2022/09/29 02:28:51;;;;;;;1999.90;999.90;;;4.70;99.90;;;;;;5015199;28;20112;-65
2022/09/29 02:31:17;;;;;;;1999.90;999.90;;;4.70;99.90;;;;;;5009092;28;20456;-65
2022/09/29 02:33:43;;;;;;;1999.90;999.90;;;4.80;99.90;;;;;;5031450;28;20056;-65
2022/09/29 02:36:12;;;;;;;1999.90;999.90;;;4.80;99.90;;;;;;5020885;28;20378;-65
2022/09/29 02:39:02;;;;;;;1999.90;999.90;;;4.80;99.90;;;;;;5023504;28;20072;-65
2022/09/29 02:41:49;;;;;;;1999.90;999.90;;;4.80;99.90;;;;;;5021261;28;20053;-65
2022/09/29 02:44:20;;;;;;;1999.90;999.90;;;4.80;99.90;;;;;;5016223;28;20064;-65
2022/09/29 02:47:31;;;;;;;1999.90;999.90;;;4.80;99.90;;;;;;5036514;28;20049;-65
2022/09/29 02:50:12;;;;;;;1999.90;999.90;;;4.80;99.90;;;;;;5009819;28;20041;-65
2022/09/29 02:52:41;;;;;;;1999.90;999.90;;;4.70;99.90;;;;;;5026593;28;20048;-65
2022/09/29 02:55:32;;;;;;;1999.90;999.90;;;4.70;99.90;;;;;;5022287;28;20413;-65
2022/09/29 02:58:22;;;;;;;1999.90;999.90;;;4.70;99.90;;;;;;5026831;28;20485;-65
2022/09/29 03:00:48;;;;;;;1999.90;999.90;;;4.70;99.90;;;;;;5025007;28;20060;-65
2022/09/29 03:03:14;;;;;;;1999.90;999.90;;;4.70;99.90;;;;;;5015020;28;20044;-65
2022/09/29 03:05:39;;;;;;;1999.90;999.90;;;4.70;99.90;;;;;;5028843;28;20087;-65
2022/09/29 03:08:05;;;;;;;1999.90;999.90;;;4.60;99.90;;;;;;5014812;28;20052;-65
2022/09/29 03:10:30;;;;;;;1999.90;999.90;;;4.60;99.90;;;;;;5025041;28;20649;-65
2022/09/29 03:12:56;;;;;;;1999.90;999.90;;;4.60;99.90;;;;;;5015264;28;20038;-65
2022/09/29 03:15:22;;;;;;;1999.90;999.90;;;4.50;99.90;;;;;;5022289;28;20132;-65
2022/09/29 03:17:48;;;;;;;1999.90;999.90;;;4.50;99.90;;;;;;5027428;28;20410;-65
2022/09/29 03:20:14;;;;;;;1999.90;999.90;;;4.40;99.90;;;;;;5033743;28;20048;-65
2022/09/29 03:22:39;;;;;;;1999.90;999.90;;;4.40;99.90;;;;;;5025244;28;20052;-65
2022/09/29 03:25:05;;;;;;;1999.90;999.90;;;4.40;99.90;;;;;;5022997;28;20490;-65
2022/09/29 03:27:32;;;;;;;1999.90;999.90;;;4.30;99.90;;;;;;5022554;28;20056;-65
2022/09/29 03:29:57;;;;;;;1999.90;999.90;;;4.30;99.90;;;;;;5018820;28;20077;-65
2022/09/29 03:32:23;;;;;;;1999.90;999.90;;;4.30;99.90;;;;;;5033532;28;20575;-65
2022/09/29 03:34:49;;;;;;;1999.90;999.90;;;4.30;99.90;;;;;;5014229;28;20396;-65
2022/09/29 03:37:14;;;;;;;1999.90;999.90;;;4.20;99.90;;;;;;5031213;28;20482;-65
2022/09/29 03:39:40;;;;;;;1999.90;999.90;;;4.20;99.90;;;;;;5012639;28;20411;-65
2022/09/29 03:42:06;;;;;;;1999.90;999.90;;;4.20;99.90;;;;;;5016505;28;20056;-65
2022/09/29 03:44:31;;;;;;;1999.90;999.90;;;4.20;99.90;;;;;;5008717;28;20045;-65
2022/09/29 03:46:57;;;;;;;1999.90;999.90;;;4.20;99.90;;;;;;5026994;28;20041;-65
2022/09/29 03:49:22;;;;;;;1999.90;999.90;;;4.20;99.90;;;;;;5014242;28;20128;-65
2022/09/29 03:51:48;;;;;;;1999.90;999.90;;;4.10;99.90;;;;;;5025031;28;20489;-65
2022/09/29 03:54:13;;;;;;;1999.90;999.90;;;4.10;99.90;;;;;;5022369;28;20064;-65
2022/09/29 03:56:39;;;;;;;1999.90;999.90;;;4.10;99.90;;;;;;5029940;28;20037;-65
2022/09/29 03:59:07;;;;;;;1999.90;999.90;;;4.10;99.90;;;;;;5014190;28;20041;-65
2022/09/29 04:01:33;;;;;;;1999.90;999.90;;;4.10;99.90;;;;;;5022790;28;20048;-65
2022/09/29 04:03:58;;;;;;;1999.90;999.90;;;4.10;99.90;;;;;;5010160;28;20537;-65
2022/09/29 04:06:24;;;;;;;1999.90;999.90;;;4.10;99.90;;;;;;5026490;28;20136;-65
2022/09/29 04:08:50;;;;;;;1999.90;999.90;;;4.00;99.90;;;;;;5027583;28;20032;-65
2022/09/29 04:11:15;;;;;;;1999.90;999.90;;;4.00;99.90;;;;;;5028654;28;20054;-64
2022/09/29 04:13:41;;;;;;;1999.90;999.90;;;4.00;99.90;;;;;;5023508;28;20045;-65
2022/09/29 04:16:07;;;;;;;1999.90;999.90;;;3.90;99.90;;;;;;5023503;28;20041;-65
2022/09/29 04:18:32;;;;;;;1999.90;999.90;;;4.00;99.90;;;;;;5021072;28;20125;-65
2022/09/29 04:20:59;;;;;;;1999.90;999.90;;;3.90;99.90;;;;;;5015363;28;20153;-65
2022/09/29 04:23:28;;;;;;;1999.90;999.90;;;3.90;99.90;;;;;;5018829;28;20038;-64
2022/09/29 04:25:54;;;;;;;1999.90;999.90;;;3.90;99.90;;;;;;5019348;28;20056;-65
2022/09/29 04:28:20;;;;;;;1999.90;999.90;;;3.90;99.90;;;;;;5024410;28;20095;-65
2022/09/29 04:30:45;;;;;;;1999.90;999.90;;;3.90;99.90;;;;;;5025900;28;20041;-65
2022/09/29 04:33:11;;;;;;;1999.90;999.90;;;3.90;99.90;;;;;;5014201;28;20058;-65
2022/09/29 04:35:37;;;;;;;1999.90;999.90;;;3.90;99.90;;;;;;5024139;28;20050;-65
2022/09/29 04:38:03;;;;;;;1999.90;999.90;;;3.80;99.90;;;;;;5018190;28;20049;-65
2022/09/29 04:40:28;;;;;;;1999.90;999.90;;;3.80;99.90;;;;;;5021981;28;20080;-65
2022/09/29 04:42:54;;;;;;;1999.90;999.90;;;3.80;99.90;;;;;;5031637;28;20045;-65
2022/09/29 04:45:19;;;;;;;1999.90;999.90;;;3.80;99.90;;;;;;5008307;28;20871;-65
2022/09/29 04:47:45;;;;;;;1999.90;999.90;;;3.80;99.90;;;;;;5019382;28;20077;-65
2022/09/29 04:50:10;;;;;;;1999.90;999.90;;;3.70;99.90;;;;;;5038347;28;20508;-65
2022/09/29 04:52:36;;;;;;;1999.90;999.90;;;3.80;99.90;;;;;;5020036;28;20116;-65
2022/09/29 04:55:03;;;;;;;1999.90;999.90;;;3.80;99.90;;;;;;5028938;28;20030;-65
2022/09/29 04:57:29;;;;;;;1999.90;999.90;;;3.80;99.90;;;;;;5022340;28;20046;-65
2022/09/29 04:59:55;;;;;;;1999.90;999.90;;;3.80;99.90;;;;;;5019863;28;20623;-65
2022/09/29 05:02:21;;;;;;;1999.90;999.90;;;3.70;99.90;;;;;;5023801;28;20041;-65
2022/09/29 05:04:47;;;;;;;1999.90;999.90;;;3.80;99.90;;;;;;5024654;28;20038;-65
2022/09/29 05:07:13;;;;;;;1999.90;999.90;;;3.80;99.90;;;;;;5022161;28;20095;-65
2022/09/29 05:09:39;;;;;;;1999.90;999.90;;;3.80;99.90;;;;;;5027098;28;20490;-65
2022/09/29 05:12:05;;;;;;;1999.90;999.90;;;3.80;99.90;;;;;;5015792;28;20033;-65
2022/09/29 05:14:30;;;;;;;1999.90;999.90;;;3.80;99.90;;;;;;5027566;28;20636;-65
2022/09/29 05:16:57;;;;;;;1999.90;999.90;;;3.80;99.90;;;;;;5022456;28;20067;-65
2022/09/29 05:19:22;;;;;;;1999.90;999.90;;;3.80;99.90;;;;;;5009463;28;20418;-65
2022/09/29 05:21:48;;;;;;;1999.90;999.90;;;3.80;99.90;;;;;;5022000;28;20038;-65
2022/09/29 05:24:14;;;;;;;1999.90;999.90;;;3.80;99.90;;;;;;5025346;28;20053;-65
2022/09/29 05:26:39;;;;;;;1999.90;999.90;;;3.80;99.90;;;;;;5009371;28;20053;-65
2022/09/29 05:29:05;;;;;;;1999.90;999.90;;;3.80;99.90;;;;;;5025701;28;20077;-65
2022/09/29 05:31:31;;;;;;;1999.90;999.90;;;3.70;99.90;;;;;;5029353;28;20140;-65
2022/09/29 05:33:56;;;;;;;1999.90;999.90;;;3.70;99.90;;;;;;5007652;28;20053;-65
2022/09/29 05:36:22;;;;;;;1999.90;999.90;;;3.70;99.90;;;;;;5022300;28;20045;-65
2022/09/29 05:38:48;;;;;;;1999.90;999.90;;;3.70;99.90;;;;;;5025815;28;20041;-65
2022/09/29 05:41:21;;;;;;;1999.90;999.90;;;3.70;99.90;;;;;;5024160;28;20834;-65
2022/09/29 05:43:52;;;;;;;1999.90;999.90;;;3.70;99.90;;;;;;5013192;28;20117;-65
2022/09/29 05:46:18;;;;;;;1999.90;999.90;;;3.70;99.90;;;;;;5034731;28;20128;-65
2022/09/29 05:48:49;;;;;;;1999.90;999.90;;;3.80;99.90;;;;;;5002954;28;20617;-65
2022/09/29 05:51:16;;;;;;;1999.90;999.90;;;3.80;99.90;;;;;;5034764;28;20041;-65
2022/09/29 05:53:42;;;;;;;1999.90;999.90;;;3.80;99.90;;;;;;5034877;28;20041;-65
2022/09/29 05:56:15;;;;;;;1999.90;999.90;;;3.90;99.90;;;;;;5020802;28;20091;-65
2022/09/29 05:58:41;;;;;;;1999.90;999.90;;;3.90;99.90;;;;;;5019039;28;20041;-65
2022/09/29 06:01:08;;;;;;;1999.90;999.90;;;3.90;99.90;;;;;;5027380;28;20082;-65
2022/09/29 06:03:35;;;;;;;1999.90;999.90;;;3.90;99.90;;;;;;5036416;28;20048;-65
2022/09/29 06:06:21;;;;;;;1999.90;999.90;;;3.90;99.90;;;;;;5033269;28;20073;-65
2022/09/29 06:08:47;;;;;;;1999.90;999.90;;;3.90;99.90;;;;;;5017200;28;20524;-65
2022/09/29 06:11:17;;;;;;;1999.90;999.90;;;4.00;99.90;;;;;;5031120;28;20050;-65
2022/09/29 06:13:45;;;;;;;1999.90;999.90;;;4.00;99.90;;;;;;5030273;28;20064;-65
2022/09/29 06:16:12;;;;;;;1999.90;999.90;;;4.10;99.90;;;;;;5021686;28;20053;-65
2022/09/29 06:18:37;;;;;;;1999.90;999.90;;;4.10;99.90;;;;;;5018086;28;20091;-65
2022/09/29 06:21:06;;;;;;;1999.90;999.90;;;4.10;99.90;;;;;;5028431;28;20414;-65
2022/09/29 06:23:32;;;;;;;1999.90;999.90;;;4.20;99.90;;;;;;5044286;28;20036;-65
2022/09/29 06:26:00;;;;;;;1999.90;999.90;;;4.20;99.90;;;;;;5029128;28;20034;-65
2022/09/29 06:28:26;;;;;;;1999.90;999.90;;;4.40;99.90;;;;;;5032879;28;20445;-65
2022/09/29 06:30:52;;;;;;;1999.90;999.90;;;4.50;99.90;;;;;;5021091;28;20049;-65
2022/09/29 06:33:19;;;;;;;1999.90;999.90;;;4.60;99.90;;;;;;5011055;28;20054;-65
2022/09/29 06:38:31;;;;;;;1999.90;999.90;;;4.70;99.90;;;;;;5024535;28;20050;-65
2022/09/29 06:40:56;;;;;;;1999.90;999.90;;;4.80;99.90;;;;;;5037201;28;20409;-65
2022/09/29 06:43:22;;;;;;;1999.90;999.90;;;4.90;99.90;;;;;;5016672;28;20034;-65
2022/09/29 06:45:47;;;;;;;1999.90;999.90;;;5.00;99.90;;;;;;5037509;28;20068;-65
2022/09/29 06:48:13;;;;;;;1999.90;999.90;;;5.00;99.90;;;;;;5025162;28;20052;-65
2022/09/29 06:50:38;;;;;;;1999.90;999.90;;;5.10;99.90;;;;;;5025170;28;20051;-65
2022/09/29 06:53:04;;;;;;;1999.90;999.90;;;5.20;99.90;;;;;;5001431;28;20461;-65
2022/09/29 06:55:30;;;;;;;1999.90;999.90;;;5.40;99.90;;;;;;5018647;28;20037;-65
2022/09/29 06:57:55;;;;;;;1999.90;999.90;;;5.50;99.90;;;;;;5025070;28;20045;-65
2022/09/29 07:00:21;;;;;;;1999.90;999.90;;;5.60;99.90;;;;;;5018212;28;20044;-65
2022/09/29 07:02:47;;;;;;;1999.90;999.90;;;5.70;99.90;;;;;;5021670;28;20033;-65
2022/09/29 07:05:12;;;;;;;1999.90;999.90;;;5.80;99.90;;;;;;5021161;28;20080;-65
2022/09/29 07:07:38;;;;;;;1999.90;999.90;;;6.00;99.90;;;;;;5009274;28;20039;-65
2022/09/29 07:10:04;;;;;;;1999.90;999.90;;;6.10;99.90;;;;;;5027066;28;20034;-65
2022/09/29 07:12:30;;;;;;;1999.90;999.90;;;6.20;99.90;;;;;;5024889;28;20041;-65
2022/09/29 07:14:55;;;;;;;1999.90;999.90;;;6.20;99.90;;;;;;5017062;28;20033;-65
2022/09/29 07:17:21;;;;;;;1999.90;999.90;;;6.20;99.90;;;;;;5021677;28;20384;-65
2022/09/29 07:19:46;;;;;;;1999.90;999.90;;;6.40;99.90;;;;;;5029955;28;20079;-65
2022/09/29 07:22:12;;;;;;;1999.90;999.90;;;6.60;99.90;;;;;;5039680;28;20052;-65
2022/09/29 07:24:38;;;;;;;1999.90;999.90;;;6.70;99.90;;;;;;5018551;28;20043;-65
2022/09/29 07:27:03;;;;;;;1999.90;999.90;;;6.80;99.90;;;;;;5031139;28;20037;-65
2022/09/29 07:29:31;;;;;;;1999.90;999.90;;;6.90;99.90;;;;;;5033931;28;20794;-66
2022/09/29 07:31:58;;;;;;;1999.90;999.90;;;7.00;99.90;;;;;;5008553;28;20065;-65
2022/09/29 07:34:23;;;;;;;1999.90;999.90;;;7.10;99.90;;;;;;5005462;28;20112;-65
2022/09/29 07:36:50;;;;;;;1999.90;999.90;;;7.20;99.90;;;;;;5018694;28;20492;-66
2022/09/29 07:39:16;;;;;;;1999.90;999.90;;;7.30;99.90;;;;;;5013218;28;20045;-65
2022/09/29 07:41:41;;;;;;;1999.90;999.90;;;7.40;99.90;;;;;;5016872;28;20048;-66
2022/09/29 07:44:07;;;;;;;1999.90;999.90;;;7.50;99.90;;;;;;5013560;28;20034;-65
2022/09/29 07:46:33;;;;;;;1999.90;999.90;;;7.60;99.90;;;;;;5007093;28;20157;-65
2022/09/29 07:48:58;;;;;;;1999.90;999.90;;;7.70;99.90;;;;;;5021628;28;20048;-65
2022/09/29 07:51:24;;;;;;;1999.90;999.90;;;7.80;99.90;;;;;;5021575;28;20862;-65
2022/09/29 07:53:49;;;;;;;1999.90;999.90;;;7.90;99.90;;;;;;5023597;28;20493;-66
2022/09/29 07:56:18;;;;;;;1999.90;999.90;;;8.00;99.90;;;;;;5014264;28;20409;-65
2022/09/29 07:58:44;;;;;;;1999.90;999.90;;;8.10;99.90;;;;;;5017660;28;20049;-66
2022/09/29 08:01:12;;;;;;;1999.90;999.90;;;8.20;99.90;;;;;;5016468;28;20056;-66
2022/09/29 08:03:43;;;;;;;1999.90;999.90;;;8.30;99.90;;;;;;5027491;28;20048;-65
2022/09/29 08:06:10;;;;;;;1999.90;999.90;;;8.40;99.90;;;;;;5018779;28;20053;-65
2022/09/29 08:08:37;;;;;;;1999.90;999.90;;;8.60;99.90;;;;;;5022130;28;20034;-65
2022/09/29 08:11:04;;;;;;;1999.90;999.90;;;8.70;99.90;;;;;;5016311;28;20037;-65
2022/09/29 08:13:31;;;;;;;1999.90;999.90;;;8.80;99.90;;;;;;5014345;28;20584;-66
2022/09/29 08:16:00;;;;;;;1999.90;999.90;;;9.00;99.90;;;;;;5021461;28;20116;-66
2022/09/29 08:18:27;;;;;;;1999.90;999.90;;;9.10;99.90;;;;;;5018580;28;20046;-66
2022/09/29 08:20:53;;;;;;;1999.90;999.90;;;9.30;99.90;;;;;;5003165;28;20041;-65
2022/09/29 08:23:19;;;;;;;1999.90;999.90;;;9.50;99.90;;;;;;5039575;28;20052;-66
2022/09/29 08:25:45;;;;;;;1999.90;999.90;;;9.90;99.90;;;;;;5019181;28;20053;-66
2022/09/29 08:28:10;;;;;;;1999.90;999.90;;;10.30;99.90;;;;;;5038069;28;20050;-65
2022/09/29 08:30:37;;;;;;;1999.90;999.90;;;10.80;99.90;;;;;;5030513;28;20046;-65
2022/09/29 08:33:03;;;;;;;1999.90;999.90;;;11.20;99.90;;;;;;5020403;28;20091;-66
2022/09/29 08:35:28;;;;;;;1999.90;999.90;;;11.50;99.90;;;;;;5004773;28;20041;-66
2022/09/29 08:37:56;;;;;;;1999.90;999.90;;;11.60;99.90;;;;;;5022010;28;20681;-66
2022/09/29 08:40:22;;;;;;;1999.90;999.90;;;11.60;99.90;;;;;;5021239;28;20048;-66
2022/09/29 08:42:53;;;;;;;1999.90;999.90;;;12.00;99.90;;;;;;5023743;28;20037;-66
2022/09/29 08:45:32;;;;;;;1999.90;999.90;;;12.50;99.90;;;;;;5019131;28;20049;-65
2022/09/29 08:48:09;;;;;;;1999.90;999.90;;;13.50;99.90;;;;;;5016841;28;20041;-65
2022/09/29 08:50:44;;;;;;;1999.90;999.90;;;14.40;99.90;;;;;;5027192;28;20045;-66
2022/09/29 08:53:15;;;;;;;1999.90;999.90;;;15.00;99.90;;;;;;5026070;28;20073;-66
2022/09/29 08:55:45;;;;;;;1999.90;999.90;;;15.40;99.90;;;;;;5030035;28;20041;-65
2022/09/29 08:58:14;;;;;;;1999.90;999.90;;;15.80;99.90;;;;;;5021506;28;20084;-66
2022/09/29 09:01:08;;;;;;;1999.90;999.90;;;16.10;99.90;;;;;;5031651;28;20050;-65
2022/09/29 09:03:37;;;;;;;1999.90;999.90;;;16.30;99.90;;;;;;5004616;28;20111;-66
2022/09/29 09:06:25;;;;;;;1999.90;999.90;;;16.40;99.90;;;;;;5024071;28;20100;-66
2022/09/29 09:09:22;;;;;;;1999.90;999.90;;;16.50;99.90;;;;;;5011053;28;20055;-66
2022/09/29 09:12:26;;;;;;;1999.90;999.90;;;16.60;99.90;;;;;;5024776;28;20410;-66
2022/09/29 09:15:16;;;;;;;1999.90;999.90;;;17.00;99.90;;;;;;4966316;28;20121;-67
2022/09/29 09:17:56;;;;;;;1999.90;999.90;;;17.30;99.90;;;;;;4962594;28;20058;-66
2022/09/29 09:20:43;;;;;;;1999.90;999.90;;;17.30;99.90;;;;;;4970402;28;20062;-66
2022/09/29 09:23:17;;;;;;;1999.90;999.90;;;17.30;99.90;;;;;;4982645;28;20396;-66
2022/09/29 09:25:59;;;;;;;1999.90;999.90;;;17.50;99.90;;;;;;4987357;28;20065;-66
2022/09/29 09:28:48;;;;;;;1999.90;999.90;;;17.80;99.90;;;;;;4971597;28;20188;-66
2022/09/29 09:31:30;;;;;;;1999.90;999.90;;;17.80;99.90;;;;;;4966711;28;20073;-66
2022/09/29 09:34:05;;;;;;;1999.90;999.90;;;17.80;99.90;;;;;;4952463;28;20684;-66
2022/09/29 09:36:33;;;;;;;1999.90;999.90;;;17.80;99.90;;;;;;4967890;28;20117;-66
2022/09/29 09:39:17;;;;;;;1999.90;999.90;;;17.60;99.90;;;;;;4977621;28;20042;-66
2022/09/29 09:41:46;;;;;;;;;;;17.80;99.90;;;;;;4972743;28;20057;-66
2022/09/29 09:44:41;;;;;;;1999.90;999.90;;;17.80;99.90;;;;;;4981965;28;19922;-66
2022/09/29 09:47:36;;;;;;;1999.90;999.90;;;17.80;99.90;;;;;;4975931;28;20053;-66
2022/09/29 09:50:15;;;;;;;1999.90;999.90;;;17.80;99.90;;;;;;4981146;28;20064;-66
2022/09/29 09:52:45;;;;;;;1999.90;999.90;;;17.80;99.90;;;;;;5005207;28;20445;-66
2022/09/29 09:55:20;;;;;;;1999.90;999.90;;;17.60;99.90;;;;;;5038168;28;20045;-66
2022/09/29 09:58:27;;;;;;;1999.90;999.90;;;17.50;99.90;;;;;;5026651;28;20479;-66
2022/09/29 10:01:18;;;;;;;1999.90;999.90;;;17.50;99.90;;;;;;5017417;28;20448;-66
2022/09/29 10:45:57;;;;;;;1999.90;999.90;;;16.70;99.90;;;;;;5146341;27;20404;-65
2022/09/29 10:48:24;;;;;;;1999.90;999.90;;;16.80;99.90;;;;;;5125632;27;20138;-65
2022/09/29 10:50:55;;;;;;;1999.90;999.90;;;16.90;99.90;;;;;;5113774;27;20031;-66
2022/09/29 10:53:36;;;;;;;1999.90;999.90;;;17.00;99.90;;;;;;5089095;27;20043;-65
2022/09/29 10:56:15;;;;;;;1999.90;999.90;;;17.20;99.90;;;;;;5105374;27;20542;-65
2022/09/29 10:58:44;;;;;;;1999.90;999.90;;;17.40;99.90;;;;;;5104242;28;20399;-65
2022/09/29 11:01:15;;;;;;;1999.90;999.90;;;17.60;99.90;;;;;;5121555;27;20091;-65
2022/09/29 11:03:51;;;;;;;1999.90;999.90;;;17.80;99.90;;;;;;5123170;27;20043;-66
2022/09/29 11:06:23;;;;;;;1999.90;999.90;;;17.90;99.90;;;;;;5124569;27;20444;-65
2022/09/29 11:09:01;;;;;;;1999.90;999.90;;;17.80;99.90;;;;;;5105891;27;20114;-65
2022/09/29 11:11:34;;;;;;;1999.90;999.90;;;17.80;99.90;;;;;;5115886;27;20054;-65
2022/09/29 11:14:00;;;;;;;1999.90;999.90;;;18.00;99.90;;;;;;5123134;27;20049;-66
2022/09/29 11:16:29;;;;;;;1999.90;999.90;;;18.10;99.90;;;;;;5109136;28;20047;-66
2022/09/29 11:19:01;;;;;;;1999.90;999.90;;;18.10;99.90;;;;;;5109631;27;20476;-66
2022/09/29 11:21:30;;;;;;;1999.90;999.90;;;18.20;99.90;;;;;;5086376;27;20048;-66
2022/09/29 11:24:13;;;;;;;1999.90;999.90;;;18.30;99.90;;;;;;5122635;27;20380;-65
2022/09/29 11:27:13;;;;;;;1999.90;999.90;;;18.30;99.90;;;;;;5098046;28;20248;-66
2022/09/29 11:29:59;;;;;;;1999.90;999.90;;;17.90;99.90;;;;;;5125118;27;20766;-65
2022/09/29 11:32:29;;;;;;;1999.90;999.90;;;17.50;99.90;;;;;;5103966;28;20101;-65
2022/09/29 11:35:16;;;;;;;1999.90;999.90;;;17.40;99.90;;;;;;5110957;27;20122;-65
2022/09/29 11:38:07;;;;;;;1999.90;999.90;;;17.50;99.90;;;;;;5104374;27;20899;-65
2022/09/29 11:40:33;;;;;;;1999.90;999.90;;;17.60;99.90;;;;;;5121664;27;20126;-65
2022/09/29 11:43:19;;;;;;;1999.90;999.90;;;17.40;99.90;;;;;;5124467;27;20047;-65
2022/09/29 11:45:53;;;;;;;1999.90;999.90;;;17.20;99.90;;;;;;5110057;27;20112;-65
2022/09/29 11:48:41;;;;;;;1999.90;999.90;;;17.30;99.90;;;;;;5107038;27;20039;-65
2022/09/29 11:51:50;;;;;;;1999.90;999.90;;;17.40;99.90;;;;;;5107808;28;20450;-65
2022/09/29 11:54:37;;;;;;;1999.90;999.90;;;17.20;99.90;;;;;;5108346;27;20744;-65
2022/09/29 11:57:39;;;;;;;1999.90;999.90;;;16.80;99.90;;;;;;5095988;27;20074;-65
2022/09/29 12:00:11;;;;;;;1999.90;999.90;;;16.50;99.90;;;;;;5113265;27;20067;-65
2022/09/29 12:03:15;;;;;;;1999.90;999.90;;;16.30;99.90;;;;;;5089657;28;20058;-65
2022/09/29 12:05:55;;;;;;;1999.90;999.90;;;16.30;99.90;;;;;;5106533;28;20055;-65
2022/09/29 12:08:59;;;;;;;1999.90;999.90;;;16.20;99.90;;;;;;5082493;27;20044;-65
2022/09/29 12:11:40;;;;;;;1999.90;999.90;;;16.30;99.90;;;;;;5065007;28;20039;-65
2022/09/29 12:14:12;;;;;;;1999.90;999.90;;;16.60;99.90;;;;;;5091851;28;20043;-65
2022/09/29 12:16:47;;;;;;;1999.90;999.90;;;16.90;99.90;;;;;;5100286;27;20399;-65
2022/09/29 12:19:17;;;;;;;1999.90;999.90;;;17.20;99.90;;;;;;5077467;28;20043;-65
2022/09/29 12:21:50;;;;;;;1999.90;999.90;;;17.40;99.90;;;;;;5101678;28;20040;-65
2022/09/29 12:24:36;;;;;;;1999.90;999.90;;;17.50;99.90;;;;;;5102713;27;20150;-65
2022/09/29 12:27:13;;;;;;;1999.90;999.90;;;17.30;99.90;;;;;;5088033;28;20130;-65
2022/09/29 12:29:41;;;;;;;1999.90;999.90;;;17.10;99.90;;;;;;5106360;27;20377;-65
2022/09/29 12:32:17;;;;;;;1999.90;999.90;;;16.90;99.90;;;;;;5107739;27;20043;-65
2022/09/29 12:34:43;;;;;;;1999.90;999.90;;;16.80;99.90;;;;;;5100212;28;20040;-65
2022/09/29 12:37:18;;;;;;;1999.90;999.90;;;16.70;99.90;;;;;;5107385;27;20101;-65
2022/09/29 12:40:09;;;;;;;1999.90;999.90;;;16.60;99.90;;;;;;5092008;28;20052;-65
2022/09/29 12:43:02;;;;;;;1999.90;999.90;;;16.50;99.90;;;;;;5073413;28;20046;-65
2022/09/29 12:45:47;;;;;;;1999.90;999.90;;;16.50;99.90;;;;;;5102513;28;20075;-65
2022/09/29 12:48:55;;;;;;;1999.90;999.90;;;16.70;99.90;;;;;;5107015;28;20048;-65
2022/09/29 12:51:32;;;;;;;1999.90;999.90;;;17.00;99.90;;;;;;5103578;28;20051;-65
2022/09/29 12:54:07;;;;;;;1999.90;999.90;;;17.20;99.90;;;;;;5100104;27;20116;-65
2022/09/29 12:56:41;;;;;;;1999.90;999.90;;;17.30;99.90;;;;;;5089643;28;20482;-65
2022/09/29 12:59:25;;;;;;;1999.90;999.90;;;17.20;99.90;;;;;;5112446;27;20062;-65
2022/09/29 13:01:54;;;;;;;1999.90;999.90;;;17.00;99.90;;;;;;5103221;27;21258;-65
2022/09/29 13:04:49;;;;;;;1999.90;999.90;;;16.80;99.90;;;;;;5089340;28;20539;-65
2022/09/29 13:08:04;;;;;;;1999.90;999.90;;;16.70;99.90;;;;;;5085305;28;20043;-65
2022/09/29 13:10:45;;;;;;;1999.90;999.90;;;16.50;99.90;;;;;;5083493;28;20044;-65
2022/09/29 13:13:19;;;;;;;1999.90;999.90;;;16.20;99.90;;;;;;5100748;27;20043;-65
2022/09/29 13:15:56;;;;;;;1999.90;999.90;;;16.00;99.90;;;;;;5104297;28;20035;-65